sensor_id;sensor_type;location;lat;lon;timestamp;P1;durP1;ratioP1;P2;durP2;ratioP2
55633;SDS011;41504;53.162;6.788;2023-08-21T00:01:20;7.68;;;3.10;;
55633;SDS011;41504;53.162;6.788;2023-08-21T00:03:46;7.75;;;2.90;;
55633;SDS011;41504;53.162;6.788;2023-08-21T00:06:12;6.72;;;2.85;;
55633;SDS011;41504;53.162;6.788;2023-08-21T00:08:38;9.50;;;2.90;;
55633;SDS011;41504;53.162;6.788;2023-08-21T00:11:03;6.45;;;2.70;;
55633;SDS011;41504;53.162;6.788;2023-08-21T00:13:29;6.70;;;2.63;;
55633;SDS011;41504;53.162;6.788;2023-08-21T00:15:55;9.02;;;3.20;;
55633;SDS011;41504;53.162;6.788;2023-08-21T00:18:21;7.55;;;2.78;;
55633;SDS011;41504;53.162;6.788;2023-08-21T00:20:47;7.18;;;3.25;;
55633;SDS011;41504;53.162;6.788;2023-08-21T00:23:12;8.25;;;2.65;;
55633;SDS011;41504;53.162;6.788;2023-08-21T00:25:38;6.90;;;2.80;;
55633;SDS011;41504;53.162;6.788;2023-08-21T00:28:04;6.90;;;2.42;;
55633;SDS011;41504;53.162;6.788;2023-08-21T00:30:30;5.45;;;2.40;;
55633;SDS011;41504;53.162;6.788;2023-08-21T00:32:56;7.95;;;2.55;;
55633;SDS011;41504;53.162;6.788;2023-08-21T00:35:21;4.90;;;2.17;;
55633;SDS011;41504;53.162;6.788;2023-08-21T00:37:47;4.65;;;2.20;;
55633;SDS011;41504;53.162;6.788;2023-08-21T00:40:13;6.85;;;2.38;;
55633;SDS011;41504;53.162;6.788;2023-08-21T00:42:39;6.68;;;2.60;;
55633;SDS011;41504;53.162;6.788;2023-08-21T00:45:04;6.70;;;2.40;;
55633;SDS011;41504;53.162;6.788;2023-08-21T00:47:34;5.32;;;2.30;;
55633;SDS011;41504;53.162;6.788;2023-08-21T00:50:01;4.65;;;2.20;;
55633;SDS011;41504;53.162;6.788;2023-08-21T00:52:27;6.72;;;2.70;;
55633;SDS011;41504;53.162;6.788;2023-08-21T00:54:53;7.15;;;2.50;;
55633;SDS011;41504;53.162;6.788;2023-08-21T00:57:20;5.80;;;2.33;;
55633;SDS011;41504;53.162;6.788;2023-08-21T00:59:46;5.60;;;2.30;;
55633;SDS011;41504;53.162;6.788;2023-08-21T01:02:12;5.18;;;2.20;;
55633;SDS011;41504;53.162;6.788;2023-08-21T01:04:38;5.55;;;2.50;;
55633;SDS011;41504;53.162;6.788;2023-08-21T01:07:04;7.40;;;2.50;;
55633;SDS011;41504;53.162;6.788;2023-08-21T01:09:52;5.03;;;2.25;;
55633;SDS011;41504;53.162;6.788;2023-08-21T01:12:37;5.53;;;2.58;;
55633;SDS011;41504;53.162;6.788;2023-08-21T01:15:41;3.72;;;1.85;;
55633;SDS011;41504;53.162;6.788;2023-08-21T01:18:09;4.32;;;2.00;;
55633;SDS011;41504;53.162;6.788;2023-08-21T01:20:35;4.85;;;2.22;;
55633;SDS011;41504;53.162;6.788;2023-08-21T01:23:04;5.28;;;2.15;;
55633;SDS011;41504;53.162;6.788;2023-08-21T01:25:33;5.20;;;2.17;;
55633;SDS011;41504;53.162;6.788;2023-08-21T01:27:59;4.65;;;2.13;;
55633;SDS011;41504;53.162;6.788;2023-08-21T01:30:25;4.50;;;2.33;;
55633;SDS011;41504;53.162;6.788;2023-08-21T01:33:05;5.95;;;2.40;;
55633;SDS011;41504;53.162;6.788;2023-08-21T01:35:34;5.73;;;2.30;;
55633;SDS011;41504;53.162;6.788;2023-08-21T01:38:04;5.57;;;2.20;;
55633;SDS011;41504;53.162;6.788;2023-08-21T01:40:30;4.28;;;2.10;;
55633;SDS011;41504;53.162;6.788;2023-08-21T01:42:56;5.30;;;2.08;;
55633;SDS011;41504;53.162;6.788;2023-08-21T01:45:24;4.03;;;2.20;;
55633;SDS011;41504;53.162;6.788;2023-08-21T01:47:51;5.18;;;2.22;;
55633;SDS011;41504;53.162;6.788;2023-08-21T01:50:16;4.82;;;2.10;;
55633;SDS011;41504;53.162;6.788;2023-08-21T01:52:42;4.78;;;2.03;;
55633;SDS011;41504;53.162;6.788;2023-08-21T01:55:08;4.03;;;1.83;;
55633;SDS011;41504;53.162;6.788;2023-08-21T01:57:35;4.82;;;2.00;;
55633;SDS011;41504;53.162;6.788;2023-08-21T02:00:01;4.28;;;2.05;;
55633;SDS011;41504;53.162;6.788;2023-08-21T02:02:46;4.30;;;2.15;;
55633;SDS011;41504;53.162;6.788;2023-08-21T02:05:12;3.72;;;1.80;;
55633;SDS011;41504;53.162;6.788;2023-08-21T02:07:38;5.30;;;1.98;;
55633;SDS011;41504;53.162;6.788;2023-08-21T02:10:03;4.38;;;1.95;;
55633;SDS011;41504;53.162;6.788;2023-08-21T02:12:29;4.75;;;2.00;;
55633;SDS011;41504;53.162;6.788;2023-08-21T02:14:55;4.20;;;1.95;;
55633;SDS011;41504;53.162;6.788;2023-08-21T02:17:21;4.35;;;1.98;;
55633;SDS011;41504;53.162;6.788;2023-08-21T02:19:51;6.38;;;2.22;;
55633;SDS011;41504;53.162;6.788;2023-08-21T02:22:16;6.88;;;2.15;;
55633;SDS011;41504;53.162;6.788;2023-08-21T02:24:42;5.45;;;2.10;;
55633;SDS011;41504;53.162;6.788;2023-08-21T02:27:08;5.57;;;2.10;;
55633;SDS011;41504;53.162;6.788;2023-08-21T02:29:34;3.50;;;1.95;;
55633;SDS011;41504;53.162;6.788;2023-08-21T02:31:59;4.72;;;1.85;;
55633;SDS011;41504;53.162;6.788;2023-08-21T02:34:25;4.20;;;1.80;;
55633;SDS011;41504;53.162;6.788;2023-08-21T02:36:55;4.13;;;1.75;;
55633;SDS011;41504;53.162;6.788;2023-08-21T02:39:20;4.45;;;2.00;;
55633;SDS011;41504;53.162;6.788;2023-08-21T02:41:46;3.03;;;1.70;;
55633;SDS011;41504;53.162;6.788;2023-08-21T02:44:12;2.45;;;1.40;;
55633;SDS011;41504;53.162;6.788;2023-08-21T02:46:37;3.53;;;1.75;;
55633;SDS011;41504;53.162;6.788;2023-08-21T02:49:03;3.85;;;1.60;;
55633;SDS011;41504;53.162;6.788;2023-08-21T02:51:29;3.03;;;1.65;;
55633;SDS011;41504;53.162;6.788;2023-08-21T02:53:55;4.90;;;1.67;;
55633;SDS011;41504;53.162;6.788;2023-08-21T02:56:20;4.18;;;1.85;;
55633;SDS011;41504;53.162;6.788;2023-08-21T02:58:46;5.43;;;2.03;;
55633;SDS011;41504;53.162;6.788;2023-08-21T03:01:12;4.63;;;2.08;;
55633;SDS011;41504;53.162;6.788;2023-08-21T03:03:37;6.18;;;2.42;;
55633;SDS011;41504;53.162;6.788;2023-08-21T03:06:03;3.70;;;1.80;;
55633;SDS011;41504;53.162;6.788;2023-08-21T03:08:29;4.30;;;2.20;;
55633;SDS011;41504;53.162;6.788;2023-08-21T03:10:54;3.60;;;1.90;;
55633;SDS011;41504;53.162;6.788;2023-08-21T03:13:20;6.47;;;2.60;;
55633;SDS011;41504;53.162;6.788;2023-08-21T03:15:46;6.70;;;2.70;;
55633;SDS011;41504;53.162;6.788;2023-08-21T03:18:11;6.60;;;3.38;;
55633;SDS011;41504;53.162;6.788;2023-08-21T03:20:37;6.15;;;2.90;;
55633;SDS011;41504;53.162;6.788;2023-08-21T03:23:03;5.05;;;2.40;;
55633;SDS011;41504;53.162;6.788;2023-08-21T03:25:28;4.05;;;1.95;;
55633;SDS011;41504;53.162;6.788;2023-08-21T03:27:57;3.95;;;1.73;;
55633;SDS011;41504;53.162;6.788;2023-08-21T03:30:23;2.47;;;1.67;;
55633;SDS011;41504;53.162;6.788;2023-08-21T03:32:49;3.80;;;1.98;;
55633;SDS011;41504;53.162;6.788;2023-08-21T03:35:14;3.63;;;1.85;;
55633;SDS011;41504;53.162;6.788;2023-08-21T03:37:40;4.43;;;1.80;;
55633;SDS011;41504;53.162;6.788;2023-08-21T03:40:09;3.65;;;1.70;;
55633;SDS011;41504;53.162;6.788;2023-08-21T03:42:35;3.08;;;1.70;;
55633;SDS011;41504;53.162;6.788;2023-08-21T03:45:01;3.38;;;1.77;;
55633;SDS011;41504;53.162;6.788;2023-08-21T03:47:29;4.40;;;1.70;;
55633;SDS011;41504;53.162;6.788;2023-08-21T03:49:55;3.15;;;1.70;;
55633;SDS011;41504;53.162;6.788;2023-08-21T03:52:21;3.50;;;1.58;;
55633;SDS011;41504;53.162;6.788;2023-08-21T03:54:47;3.55;;;1.80;;
55633;SDS011;41504;53.162;6.788;2023-08-21T03:57:12;3.60;;;1.45;;
55633;SDS011;41504;53.162;6.788;2023-08-21T03:59:38;4.22;;;1.80;;
55633;SDS011;41504;53.162;6.788;2023-08-21T04:02:04;3.95;;;1.90;;
55633;SDS011;41504;53.162;6.788;2023-08-21T04:04:30;3.75;;;1.98;;
55633;SDS011;41504;53.162;6.788;2023-08-21T04:06:55;3.60;;;1.80;;
55633;SDS011;41504;53.162;6.788;2023-08-21T04:09:21;5.03;;;1.92;;
55633;SDS011;41504;53.162;6.788;2023-08-21T04:11:47;4.07;;;1.83;;
55633;SDS011;41504;53.162;6.788;2023-08-21T04:14:12;3.50;;;1.58;;
55633;SDS011;41504;53.162;6.788;2023-08-21T04:16:38;3.67;;;1.80;;
55633;SDS011;41504;53.162;6.788;2023-08-21T04:19:05;4.30;;;2.22;;
55633;SDS011;41504;53.162;6.788;2023-08-21T04:21:30;4.90;;;2.20;;
55633;SDS011;41504;53.162;6.788;2023-08-21T04:23:56;4.05;;;2.20;;
55633;SDS011;41504;53.162;6.788;2023-08-21T04:26:22;4.93;;;2.20;;
55633;SDS011;41504;53.162;6.788;2023-08-21T04:28:47;3.90;;;2.13;;
55633;SDS011;41504;53.162;6.788;2023-08-21T04:31:13;4.57;;;2.20;;
55633;SDS011;41504;53.162;6.788;2023-08-21T04:33:39;5.93;;;2.20;;
55633;SDS011;41504;53.162;6.788;2023-08-21T04:36:05;4.50;;;2.00;;
55633;SDS011;41504;53.162;6.788;2023-08-21T04:38:31;4.38;;;2.10;;
55633;SDS011;41504;53.162;6.788;2023-08-21T04:41:14;4.43;;;2.00;;
55633;SDS011;41504;53.162;6.788;2023-08-21T04:43:40;4.32;;;2.20;;
55633;SDS011;41504;53.162;6.788;2023-08-21T04:46:07;4.85;;;1.90;;
55633;SDS011;41504;53.162;6.788;2023-08-21T04:48:33;3.75;;;1.70;;
55633;SDS011;41504;53.162;6.788;2023-08-21T04:50:58;4.90;;;1.73;;
55633;SDS011;41504;53.162;6.788;2023-08-21T04:53:24;4.32;;;2.00;;
55633;SDS011;41504;53.162;6.788;2023-08-21T04:55:50;3.88;;;1.90;;
55633;SDS011;41504;53.162;6.788;2023-08-21T04:58:16;5.03;;;2.10;;
55633;SDS011;41504;53.162;6.788;2023-08-21T05:00:44;6.57;;;2.00;;
55633;SDS011;41504;53.162;6.788;2023-08-21T05:03:09;4.32;;;1.88;;
55633;SDS011;41504;53.162;6.788;2023-08-21T05:05:38;3.80;;;1.70;;
55633;SDS011;41504;53.162;6.788;2023-08-21T05:08:04;4.05;;;1.90;;
55633;SDS011;41504;53.162;6.788;2023-08-21T05:10:30;6.35;;;2.15;;
55633;SDS011;41504;53.162;6.788;2023-08-21T05:12:56;4.45;;;2.20;;
55633;SDS011;41504;53.162;6.788;2023-08-21T05:15:22;5.55;;;2.85;;
55633;SDS011;41504;53.162;6.788;2023-08-21T05:17:48;5.30;;;2.42;;
55633;SDS011;41504;53.162;6.788;2023-08-21T05:20:14;4.53;;;2.30;;
55633;SDS011;41504;53.162;6.788;2023-08-21T05:22:40;5.30;;;2.20;;
55633;SDS011;41504;53.162;6.788;2023-08-21T05:25:09;4.60;;;2.00;;
55633;SDS011;41504;53.162;6.788;2023-08-21T05:27:35;4.68;;;2.08;;
55633;SDS011;41504;53.162;6.788;2023-08-21T05:30:03;5.57;;;2.10;;
55633;SDS011;41504;53.162;6.788;2023-08-21T05:32:29;6.75;;;2.28;;
55633;SDS011;41504;53.162;6.788;2023-08-21T05:34:55;6.18;;;2.45;;
55633;SDS011;41504;53.162;6.788;2023-08-21T05:37:21;5.20;;;2.20;;
55633;SDS011;41504;53.162;6.788;2023-08-21T05:39:46;7.35;;;2.58;;
55633;SDS011;41504;53.162;6.788;2023-08-21T05:42:13;7.65;;;2.60;;
55633;SDS011;41504;53.162;6.788;2023-08-21T05:44:39;5.82;;;2.65;;
55633;SDS011;41504;53.162;6.788;2023-08-21T05:47:05;7.05;;;2.83;;
55633;SDS011;41504;53.162;6.788;2023-08-21T05:49:30;7.35;;;2.78;;
55633;SDS011;41504;53.162;6.788;2023-08-21T05:51:56;6.70;;;2.30;;
55633;SDS011;41504;53.162;6.788;2023-08-21T05:54:24;6.32;;;2.10;;
55633;SDS011;41504;53.162;6.788;2023-08-21T05:56:50;4.15;;;1.90;;
55633;SDS011;41504;53.162;6.788;2023-08-21T05:59:26;4.97;;;2.00;;
55633;SDS011;41504;53.162;6.788;2023-08-21T06:01:53;6.65;;;2.13;;
55633;SDS011;41504;53.162;6.788;2023-08-21T06:04:20;8.48;;;2.58;;
55633;SDS011;41504;53.162;6.788;2023-08-21T06:06:46;7.65;;;2.55;;
55633;SDS011;41504;53.162;6.788;2023-08-21T06:09:11;7.13;;;2.55;;
55633;SDS011;41504;53.162;6.788;2023-08-21T06:11:37;6.50;;;2.33;;
55633;SDS011;41504;53.162;6.788;2023-08-21T06:14:04;6.25;;;2.60;;
55633;SDS011;41504;53.162;6.788;2023-08-21T06:16:29;5.70;;;2.63;;
55633;SDS011;41504;53.162;6.788;2023-08-21T06:18:55;7.28;;;2.50;;
55633;SDS011;41504;53.162;6.788;2023-08-21T06:21:21;9.07;;;2.70;;
55633;SDS011;41504;53.162;6.788;2023-08-21T06:23:46;9.23;;;2.88;;
55633;SDS011;41504;53.162;6.788;2023-08-21T06:26:12;7.55;;;2.30;;
55633;SDS011;41504;53.162;6.788;2023-08-21T06:28:38;7.57;;;2.50;;
55633;SDS011;41504;53.162;6.788;2023-08-21T06:31:03;7.20;;;2.35;;
55633;SDS011;41504;53.162;6.788;2023-08-21T06:33:32;5.40;;;2.38;;
55633;SDS011;41504;53.162;6.788;2023-08-21T06:35:58;8.32;;;2.88;;
55633;SDS011;41504;53.162;6.788;2023-08-21T06:38:26;7.07;;;2.53;;
55633;SDS011;41504;53.162;6.788;2023-08-21T06:40:52;7.30;;;2.35;;
55633;SDS011;41504;53.162;6.788;2023-08-21T06:43:18;8.65;;;2.67;;
55633;SDS011;41504;53.162;6.788;2023-08-21T06:45:43;7.78;;;2.70;;
55633;SDS011;41504;53.162;6.788;2023-08-21T06:48:09;10.00;;;2.85;;
55633;SDS011;41504;53.162;6.788;2023-08-21T06:50:36;6.93;;;2.60;;
55633;SDS011;41504;53.162;6.788;2023-08-21T06:53:02;8.75;;;2.70;;
55633;SDS011;41504;53.162;6.788;2023-08-21T06:55:28;7.78;;;2.60;;
55633;SDS011;41504;53.162;6.788;2023-08-21T06:57:53;7.72;;;2.83;;
55633;SDS011;41504;53.162;6.788;2023-08-21T07:00:19;6.78;;;2.38;;
55633;SDS011;41504;53.162;6.788;2023-08-21T07:02:45;7.72;;;2.50;;
55633;SDS011;41504;53.162;6.788;2023-08-21T07:05:11;6.78;;;2.40;;
55633;SDS011;41504;53.162;6.788;2023-08-21T07:07:36;8.07;;;2.30;;
55633;SDS011;41504;53.162;6.788;2023-08-21T07:10:02;8.57;;;2.10;;
55633;SDS011;41504;53.162;6.788;2023-08-21T07:12:31;5.70;;;2.28;;
55633;SDS011;41504;53.162;6.788;2023-08-21T07:14:57;8.02;;;2.13;;
55633;SDS011;41504;53.162;6.788;2023-08-21T07:17:22;9.27;;;2.10;;
55633;SDS011;41504;53.162;6.788;2023-08-21T07:19:48;6.95;;;2.22;;
55633;SDS011;41504;53.162;6.788;2023-08-21T07:22:17;6.30;;;2.20;;
55633;SDS011;41504;53.162;6.788;2023-08-21T07:24:43;8.77;;;2.10;;
55633;SDS011;41504;53.162;6.788;2023-08-21T07:27:09;7.43;;;2.25;;
55633;SDS011;41504;53.162;6.788;2023-08-21T07:29:35;5.53;;;2.28;;
55633;SDS011;41504;53.162;6.788;2023-08-21T07:32:01;5.60;;;1.75;;
55633;SDS011;41504;53.162;6.788;2023-08-21T07:34:27;7.43;;;2.40;;
55633;SDS011;41504;53.162;6.788;2023-08-21T07:36:52;6.68;;;1.90;;
55633;SDS011;41504;53.162;6.788;2023-08-21T07:39:18;5.57;;;1.88;;
55633;SDS011;41504;53.162;6.788;2023-08-21T07:41:44;5.25;;;1.90;;
55633;SDS011;41504;53.162;6.788;2023-08-21T07:44:09;5.68;;;1.70;;
55633;SDS011;41504;53.162;6.788;2023-08-21T07:46:35;5.57;;;1.75;;
55633;SDS011;41504;53.162;6.788;2023-08-21T07:49:04;5.05;;;1.77;;
55633;SDS011;41504;53.162;6.788;2023-08-21T07:51:30;6.05;;;1.63;;
55633;SDS011;41504;53.162;6.788;2023-08-21T07:53:58;5.72;;;1.55;;
55633;SDS011;41504;53.162;6.788;2023-08-21T07:56:24;5.65;;;1.65;;
55633;SDS011;41504;53.162;6.788;2023-08-21T07:58:49;4.93;;;1.60;;
55633;SDS011;41504;53.162;6.788;2023-08-21T08:01:15;4.43;;;1.40;;
55633;SDS011;41504;53.162;6.788;2023-08-21T08:03:41;3.67;;;1.50;;
55633;SDS011;41504;53.162;6.788;2023-08-21T08:06:06;6.50;;;1.48;;
55633;SDS011;41504;53.162;6.788;2023-08-21T08:08:32;4.22;;;1.60;;
55633;SDS011;41504;53.162;6.788;2023-08-21T08:11:02;6.55;;;1.70;;
55633;SDS011;41504;53.162;6.788;2023-08-21T08:13:29;5.78;;;1.77;;
55633;SDS011;41504;53.162;6.788;2023-08-21T08:15:55;4.25;;;1.70;;
55633;SDS011;41504;53.162;6.788;2023-08-21T08:18:20;6.28;;;1.80;;
55633;SDS011;41504;53.162;6.788;2023-08-21T08:20:46;3.80;;;1.65;;
55633;SDS011;41504;53.162;6.788;2023-08-21T08:23:12;5.57;;;1.55;;
55633;SDS011;41504;53.162;6.788;2023-08-21T08:25:38;3.20;;;1.40;;
55633;SDS011;41504;53.162;6.788;2023-08-21T08:28:04;3.78;;;1.45;;
55633;SDS011;41504;53.162;6.788;2023-08-21T08:30:30;5.57;;;1.52;;
55633;SDS011;41504;53.162;6.788;2023-08-21T08:32:56;4.75;;;1.30;;
55633;SDS011;41504;53.162;6.788;2023-08-21T08:35:22;4.28;;;1.40;;
55633;SDS011;41504;53.162;6.788;2023-08-21T08:37:48;6.40;;;1.98;;
55633;SDS011;41504;53.162;6.788;2023-08-21T08:40:13;5.00;;;1.70;;
55633;SDS011;41504;53.162;6.788;2023-08-21T08:42:39;6.20;;;1.80;;
55633;SDS011;41504;53.162;6.788;2023-08-21T08:45:05;4.82;;;1.70;;
55633;SDS011;41504;53.162;6.788;2023-08-21T08:47:37;5.55;;;1.65;;
55633;SDS011;41504;53.162;6.788;2023-08-21T08:50:04;2.53;;;1.30;;
55633;SDS011;41504;53.162;6.788;2023-08-21T08:52:35;4.95;;;1.52;;
55633;SDS011;41504;53.162;6.788;2023-08-21T08:55:02;5.57;;;1.63;;
55633;SDS011;41504;53.162;6.788;2023-08-21T08:57:29;5.80;;;1.63;;
55633;SDS011;41504;53.162;6.788;2023-08-21T08:59:55;4.80;;;1.50;;
55633;SDS011;41504;53.162;6.788;2023-08-21T09:02:21;5.53;;;1.63;;
55633;SDS011;41504;53.162;6.788;2023-08-21T09:04:48;4.95;;;1.40;;
55633;SDS011;41504;53.162;6.788;2023-08-21T09:07:16;3.60;;;1.40;;
55633;SDS011;41504;53.162;6.788;2023-08-21T09:09:47;4.60;;;1.40;;
55633;SDS011;41504;53.162;6.788;2023-08-21T09:12:18;5.25;;;1.50;;
55633;SDS011;41504;53.162;6.788;2023-08-21T09:14:45;5.35;;;1.85;;
55633;SDS011;41504;53.162;6.788;2023-08-21T09:17:11;7.05;;;1.58;;
55633;SDS011;41504;53.162;6.788;2023-08-21T09:19:38;5.20;;;1.75;;
55633;SDS011;41504;53.162;6.788;2023-08-21T09:22:08;5.13;;;1.40;;
55633;SDS011;41504;53.162;6.788;2023-08-21T09:24:34;3.65;;;1.50;;
55633;SDS011;41504;53.162;6.788;2023-08-21T09:27:00;3.58;;;1.30;;
55633;SDS011;41504;53.162;6.788;2023-08-21T09:29:26;5.40;;;1.50;;
55633;SDS011;41504;53.162;6.788;2023-08-21T09:32:02;2.67;;;1.15;;
55633;SDS011;41504;53.162;6.788;2023-08-21T09:34:33;4.32;;;1.27;;
55633;SDS011;41504;53.162;6.788;2023-08-21T09:36:59;2.20;;;1.13;;
55633;SDS011;41504;53.162;6.788;2023-08-21T09:39:27;4.55;;;1.70;;
55633;SDS011;41504;53.162;6.788;2023-08-21T09:41:58;4.53;;;1.48;;
55633;SDS011;41504;53.162;6.788;2023-08-21T09:44:24;2.75;;;1.25;;
55633;SDS011;41504;53.162;6.788;2023-08-21T09:46:50;3.60;;;1.27;;
55633;SDS011;41504;53.162;6.788;2023-08-21T09:49:16;4.03;;;1.33;;
55633;SDS011;41504;53.162;6.788;2023-08-21T09:51:44;4.93;;;1.25;;
55633;SDS011;41504;53.162;6.788;2023-08-21T09:54:10;4.45;;;1.30;;
55633;SDS011;41504;53.162;6.788;2023-08-21T09:56:37;5.35;;;1.30;;
55633;SDS011;41504;53.162;6.788;2023-08-21T09:59:03;5.22;;;1.45;;
55633;SDS011;41504;53.162;6.788;2023-08-21T10:01:29;4.45;;;1.27;;
55633;SDS011;41504;53.162;6.788;2023-08-21T10:03:58;5.15;;;1.45;;
55633;SDS011;41504;53.162;6.788;2023-08-21T10:06:28;4.22;;;1.40;;
55633;SDS011;41504;53.162;6.788;2023-08-21T10:08:55;4.03;;;1.45;;
55633;SDS011;41504;53.162;6.788;2023-08-21T10:11:22;4.13;;;1.48;;
55633;SDS011;41504;53.162;6.788;2023-08-21T10:13:48;4.10;;;1.35;;
55633;SDS011;41504;53.162;6.788;2023-08-21T10:16:18;3.78;;;1.40;;
55633;SDS011;41504;53.162;6.788;2023-08-21T10:18:46;5.03;;;1.50;;
55633;SDS011;41504;53.162;6.788;2023-08-21T10:21:22;4.32;;;1.52;;
55633;SDS011;41504;53.162;6.788;2023-08-21T10:23:50;4.88;;;1.33;;
55633;SDS011;41504;53.162;6.788;2023-08-21T10:26:19;4.85;;;1.38;;
55633;SDS011;41504;53.162;6.788;2023-08-21T10:28:50;3.15;;;1.20;;
55633;SDS011;41504;53.162;6.788;2023-08-21T10:31:37;4.75;;;1.63;;
55633;SDS011;41504;53.162;6.788;2023-08-21T10:34:08;3.13;;;1.25;;
55633;SDS011;41504;53.162;6.788;2023-08-21T10:39:28;5.07;;;1.50;;
55633;SDS011;41504;53.162;6.788;2023-08-21T10:42:02;3.88;;;1.50;;
55633;SDS011;41504;53.162;6.788;2023-08-21T10:47:21;4.50;;;1.38;;
55633;SDS011;41504;53.162;6.788;2023-08-21T10:49:57;4.20;;;1.50;;
55633;SDS011;41504;53.162;6.788;2023-08-21T10:52:29;4.50;;;1.48;;
55633;SDS011;41504;53.162;6.788;2023-08-21T10:54:59;3.67;;;1.27;;
55633;SDS011;41504;53.162;6.788;2023-08-21T10:57:26;3.05;;;1.33;;
55633;SDS011;41504;53.162;6.788;2023-08-21T11:02:20;3.25;;;1.33;;
55633;SDS011;41504;53.162;6.788;2023-08-21T11:04:46;4.28;;;1.20;;
55633;SDS011;41504;53.162;6.788;2023-08-21T11:07:13;4.07;;;1.35;;
55633;SDS011;41504;53.162;6.788;2023-08-21T11:09:39;4.07;;;1.10;;
55633;SDS011;41504;53.162;6.788;2023-08-21T11:12:08;3.05;;;1.20;;
55633;SDS011;41504;53.162;6.788;2023-08-21T11:14:38;4.80;;;1.40;;
55633;SDS011;41504;53.162;6.788;2023-08-21T11:17:04;4.40;;;1.35;;
55633;SDS011;41504;53.162;6.788;2023-08-21T11:19:37;3.33;;;1.20;;
55633;SDS011;41504;53.162;6.788;2023-08-21T11:22:04;3.80;;;1.05;;
55633;SDS011;41504;53.162;6.788;2023-08-21T11:27:03;3.15;;;1.10;;
55633;SDS011;41504;53.162;6.788;2023-08-21T11:32:08;4.47;;;1.20;;
55633;SDS011;41504;53.162;6.788;2023-08-21T11:34:38;4.07;;;1.25;;
55633;SDS011;41504;53.162;6.788;2023-08-21T11:37:05;5.88;;;1.38;;
55633;SDS011;41504;53.162;6.788;2023-08-21T11:39:38;3.92;;;1.30;;
55633;SDS011;41504;53.162;6.788;2023-08-21T11:42:09;6.38;;;1.40;;
55633;SDS011;41504;53.162;6.788;2023-08-21T11:44:43;3.15;;;1.55;;
55633;SDS011;41504;53.162;6.788;2023-08-21T11:47:11;6.00;;;1.40;;
55633;SDS011;41504;53.162;6.788;2023-08-21T11:49:40;5.07;;;1.38;;
55633;SDS011;41504;53.162;6.788;2023-08-21T11:52:08;4.13;;;1.60;;
55633;SDS011;41504;53.162;6.788;2023-08-21T11:54:35;5.88;;;1.25;;
55633;SDS011;41504;53.162;6.788;2023-08-21T11:57:06;4.85;;;1.38;;
55633;SDS011;41504;53.162;6.788;2023-08-21T11:59:32;5.05;;;1.33;;
55633;SDS011;41504;53.162;6.788;2023-08-21T12:01:58;4.13;;;1.25;;
55633;SDS011;41504;53.162;6.788;2023-08-21T12:04:24;3.60;;;1.27;;
55633;SDS011;41504;53.162;6.788;2023-08-21T12:06:50;2.72;;;1.20;;
55633;SDS011;41504;53.162;6.788;2023-08-21T12:09:15;3.38;;;1.55;;
55633;SDS011;41504;53.162;6.788;2023-08-21T12:11:44;4.70;;;1.92;;
55633;SDS011;41504;53.162;6.788;2023-08-21T12:14:13;3.88;;;1.30;;
55633;SDS011;41504;53.162;6.788;2023-08-21T12:16:38;5.15;;;1.58;;
55633;SDS011;41504;53.162;6.788;2023-08-21T12:19:04;5.70;;;1.48;;
55633;SDS011;41504;53.162;6.788;2023-08-21T12:21:33;4.75;;;1.88;;
55633;SDS011;41504;53.162;6.788;2023-08-21T12:23:59;4.45;;;1.30;;
55633;SDS011;41504;53.162;6.788;2023-08-21T12:26:25;4.03;;;1.38;;
55633;SDS011;41504;53.162;6.788;2023-08-21T12:28:51;4.50;;;1.52;;
55633;SDS011;41504;53.162;6.788;2023-08-21T12:31:17;3.53;;;1.52;;
55633;SDS011;41504;53.162;6.788;2023-08-21T12:33:42;3.75;;;1.65;;
55633;SDS011;41504;53.162;6.788;2023-08-21T12:36:08;6.30;;;1.52;;
55633;SDS011;41504;53.162;6.788;2023-08-21T12:38:34;5.47;;;1.60;;
55633;SDS011;41504;53.162;6.788;2023-08-21T12:41:01;4.82;;;1.60;;
55633;SDS011;41504;53.162;6.788;2023-08-21T12:43:27;3.97;;;1.58;;
55633;SDS011;41504;53.162;6.788;2023-08-21T12:45:53;6.05;;;1.50;;
55633;SDS011;41504;53.162;6.788;2023-08-21T12:48:20;3.83;;;1.70;;
55633;SDS011;41504;53.162;6.788;2023-08-21T12:50:45;3.22;;;1.50;;
55633;SDS011;41504;53.162;6.788;2023-08-21T12:53:11;4.45;;;1.63;;
55633;SDS011;41504;53.162;6.788;2023-08-21T12:55:37;3.67;;;1.40;;
55633;SDS011;41504;53.162;6.788;2023-08-21T12:58:02;3.65;;;1.40;;
55633;SDS011;41504;53.162;6.788;2023-08-21T13:00:29;3.45;;;1.30;;
55633;SDS011;41504;53.162;6.788;2023-08-21T13:02:54;7.40;;;1.67;;
55633;SDS011;41504;53.162;6.788;2023-08-21T13:05:20;3.20;;;1.40;;
55633;SDS011;41504;53.162;6.788;2023-08-21T13:07:46;4.43;;;1.73;;
55633;SDS011;41504;53.162;6.788;2023-08-21T13:10:15;5.03;;;1.70;;
55633;SDS011;41504;53.162;6.788;2023-08-21T13:12:41;6.35;;;1.80;;
55633;SDS011;41504;53.162;6.788;2023-08-21T13:15:07;5.32;;;1.70;;
55633;SDS011;41504;53.162;6.788;2023-08-21T13:17:33;6.03;;;1.65;;
55633;SDS011;41504;53.162;6.788;2023-08-21T13:20:03;4.50;;;1.50;;
55633;SDS011;41504;53.162;6.788;2023-08-21T13:22:43;4.80;;;1.90;;
55633;SDS011;41504;53.162;6.788;2023-08-21T13:25:14;3.53;;;1.45;;
55633;SDS011;41504;53.162;6.788;2023-08-21T13:27:47;2.75;;;1.38;;
55633;SDS011;41504;53.162;6.788;2023-08-21T13:30:16;3.97;;;1.50;;
55633;SDS011;41504;53.162;6.788;2023-08-21T13:32:43;5.32;;;1.67;;
55633;SDS011;41504;53.162;6.788;2023-08-21T13:35:09;3.70;;;1.63;;
55633;SDS011;41504;53.162;6.788;2023-08-21T13:37:38;3.63;;;1.20;;
55633;SDS011;41504;53.162;6.788;2023-08-21T13:40:05;3.92;;;1.42;;
55633;SDS011;41504;53.162;6.788;2023-08-21T13:42:38;3.78;;;1.30;;
55633;SDS011;41504;53.162;6.788;2023-08-21T13:45:10;5.18;;;1.42;;
55633;SDS011;41504;53.162;6.788;2023-08-21T13:47:47;4.50;;;1.50;;
55633;SDS011;41504;53.162;6.788;2023-08-21T13:50:14;3.17;;;1.40;;
55633;SDS011;41504;53.162;6.788;2023-08-21T13:52:41;4.00;;;1.58;;
55633;SDS011;41504;53.162;6.788;2023-08-21T13:55:08;3.38;;;1.30;;
55633;SDS011;41504;53.162;6.788;2023-08-21T13:57:35;3.70;;;1.20;;
55633;SDS011;41504;53.162;6.788;2023-08-21T14:00:05;4.82;;;2.33;;
55633;SDS011;41504;53.162;6.788;2023-08-21T14:02:38;4.85;;;1.70;;
55633;SDS011;41504;53.162;6.788;2023-08-21T14:05:05;4.45;;;1.50;;
55633;SDS011;41504;53.162;6.788;2023-08-21T14:07:33;4.13;;;1.40;;
55633;SDS011;41504;53.162;6.788;2023-08-21T14:09:59;4.95;;;1.50;;
55633;SDS011;41504;53.162;6.788;2023-08-21T14:12:27;3.97;;;1.38;;
55633;SDS011;41504;53.162;6.788;2023-08-21T14:14:56;3.53;;;1.40;;
55633;SDS011;41504;53.162;6.788;2023-08-21T14:17:23;3.30;;;1.10;;
55633;SDS011;41504;53.162;6.788;2023-08-21T14:19:49;4.68;;;1.48;;
55633;SDS011;41504;53.162;6.788;2023-08-21T14:22:15;4.20;;;1.50;;
55633;SDS011;41504;53.162;6.788;2023-08-21T14:24:41;4.43;;;1.48;;
55633;SDS011;41504;53.162;6.788;2023-08-21T14:27:06;4.88;;;1.52;;
55633;SDS011;41504;53.162;6.788;2023-08-21T14:29:32;3.33;;;1.20;;
55633;SDS011;41504;53.162;6.788;2023-08-21T14:31:58;5.68;;;1.58;;
55633;SDS011;41504;53.162;6.788;2023-08-21T14:34:25;4.60;;;1.63;;
55633;SDS011;41504;53.162;6.788;2023-08-21T14:36:53;4.28;;;1.33;;
55633;SDS011;41504;53.162;6.788;2023-08-21T14:39:19;5.68;;;1.70;;
55633;SDS011;41504;53.162;6.788;2023-08-21T14:41:46;5.00;;;1.45;;
55633;SDS011;41504;53.162;6.788;2023-08-21T14:44:11;5.13;;;1.58;;
55633;SDS011;41504;53.162;6.788;2023-08-21T14:46:37;4.90;;;1.60;;
55633;SDS011;41504;53.162;6.788;2023-08-21T14:49:03;6.72;;;1.98;;
55633;SDS011;41504;53.162;6.788;2023-08-21T14:51:28;4.93;;;1.63;;
55633;SDS011;41504;53.162;6.788;2023-08-21T14:53:54;4.25;;;1.42;;
55633;SDS011;41504;53.162;6.788;2023-08-21T14:56:20;7.30;;;1.67;;
55633;SDS011;41504;53.162;6.788;2023-08-21T14:58:47;4.72;;;1.58;;
55633;SDS011;41504;53.162;6.788;2023-08-21T15:01:14;4.03;;;1.60;;